Time;durP1;ratioP1;P1;durP2;ratioP2;P2;SDS_P1;SDS_P2;PMS_P1;PMS_P2;Temp;Humidity;BMP_temperature;BMP_pressure;BME280_temperature;BME280_humidity;BME280_pressure;Samples;Min_cycle;Max_cycle;Signal;HPM_P1;HPM_P2
2022/12/14 00:00:58;;;;;;;60.55;26.40;;;-4.70;99.90;;;;;;5096419;28;20053;-64
2022/12/14 00:03:23;;;;;;;54.80;24.85;;;-4.80;99.90;;;;;;5077939;28;20059;-65
2022/12/14 00:05:49;;;;;;;54.95;23.15;;;-4.80;99.90;;;;;;5098410;28;20028;-64
2022/12/14 00:08:16;;;;;;;54.40;23.98;;;-4.90;99.90;;;;;;5075770;28;20034;-65
2022/12/14 00:10:43;;;;;;;53.63;24.70;;;-4.90;99.90;;;;;;5089819;28;20105;-64
2022/12/14 00:13:13;;;;;;;49.50;24.50;;;-4.90;99.90;;;;;;5073253;28;20031;-64
2022/12/14 00:15:39;;;;;;;53.15;23.75;;;-4.90;99.90;;;;;;5103669;28;20174;-64
2022/12/14 00:18:05;;;;;;;64.50;26.92;;;-4.90;99.90;;;;;;5087467;28;20142;-64
2022/12/14 00:20:32;;;;;;;60.75;25.65;;;-4.90;99.90;;;;;;5083439;28;20093;-65
2022/12/14 00:22:58;;;;;;;58.28;25.42;;;-4.90;99.90;;;;;;5080011;28;20040;-65
2022/12/14 00:25:24;;;;;;;63.53;26.35;;;-5.00;99.90;;;;;;5100131;28;20062;-64
2022/12/14 00:27:50;;;;;;;65.68;25.85;;;-4.90;99.90;;;;;;5082415;28;20044;-64
2022/12/14 00:30:19;;;;;;;58.67;25.35;;;-5.00;99.90;;;;;;5087549;28;20438;-63
2022/12/14 00:32:46;;;;;;;57.50;24.98;;;-5.00;99.90;;;;;;5102295;28;20419;-63
2022/12/14 00:35:15;;;;;;;56.25;24.77;;;-5.00;99.90;;;;;;5084805;28;20044;-64
2022/12/14 00:37:40;;;;;;;57.20;23.65;;;-5.00;99.90;;;;;;5086396;28;20047;-63
2022/12/14 00:40:07;;;;;;;59.83;24.63;;;-5.10;99.90;;;;;;5089897;28;20092;-63
2022/12/14 00:42:33;;;;;;;53.42;24.15;;;-5.10;99.90;;;;;;5104984;28;20556;-65
2022/12/14 00:45:01;;;;;;;57.10;24.15;;;-5.20;99.90;;;;;;5096018;28;20076;-64
2022/12/14 00:47:26;;;;;;;53.30;23.65;;;-5.20;99.90;;;;;;5075612;28;20043;-64
2022/12/14 00:49:52;;;;;;;56.75;24.70;;;-5.20;99.90;;;;;;5100846;28;20468;-64
2022/12/14 00:52:18;;;;;;;53.28;23.17;;;-5.30;99.90;;;;;;5098709;28;20085;-64
2022/12/14 00:54:43;;;;;;;54.13;23.75;;;-5.30;99.90;;;;;;5081613;28;20036;-63
2022/12/14 00:57:09;;;;;;;49.58;22.00;;;-5.30;99.90;;;;;;5096883;28;20047;-64
2022/12/14 00:59:35;;;;;;;55.50;21.83;;;-5.30;99.90;;;;;;5088027;28;20048;-63
2022/12/14 01:02:00;;;;;;;50.92;23.13;;;-5.30;99.90;;;;;;5101533;28;20039;-64
2022/12/14 01:04:27;;;;;;;52.03;23.02;;;-5.30;99.90;;;;;;5084218;28;20483;-65
2022/12/14 01:06:53;;;;;;;50.90;22.83;;;-5.40;99.90;;;;;;5076498;28;20047;-64
2022/12/14 01:09:20;;;;;;;54.35;22.05;;;-5.40;99.90;;;;;;5097530;28;20032;-64
2022/12/14 01:11:46;;;;;;;55.33;22.48;;;-5.40;99.90;;;;;;5094983;28;20036;-63
2022/12/14 01:14:13;;;;;;;50.17;23.33;;;-5.40;99.90;;;;;;5098015;28;20046;-63
2022/12/14 01:16:39;;;;;;;54.42;22.42;;;-5.40;99.90;;;;;;5080846;28;20040;-64
2022/12/14 01:19:06;;;;;;;57.08;22.67;;;-5.40;99.90;;;;;;5104170;28;20620;-64
2022/12/14 01:21:32;;;;;;;51.20;21.25;;;-5.40;99.90;;;;;;5101552;28;20028;-64
2022/12/14 01:24:00;;;;;;;51.70;23.52;;;-5.40;99.90;;;;;;5082538;28;20452;-65
2022/12/14 01:26:29;;;;;;;51.05;21.20;;;-5.40;99.90;;;;;;5081155;28;20400;-63
2022/12/14 01:28:56;;;;;;;43.85;21.23;;;-5.40;99.90;;;;;;5094599;28;20136;-64
2022/12/14 01:31:28;;;;;;;54.20;23.83;;;-5.50;99.90;;;;;;5095708;28;20036;-65
2022/12/14 01:33:54;;;;;;;47.55;21.80;;;-5.50;99.90;;;;;;5080502;28;20040;-64
2022/12/14 01:36:23;;;;;;;51.22;25.10;;;-5.50;99.90;;;;;;5096522;28;20047;-64
2022/12/14 01:38:53;;;;;;;53.63;22.25;;;-5.50;99.90;;;;;;5097421;28;20051;-65
2022/12/14 01:41:24;;;;;;;49.83;21.30;;;-5.60;99.90;;;;;;5074336;28;20043;-65
2022/12/14 01:43:52;;;;;;;56.75;22.35;;;-5.60;99.90;;;;;;5093170;28;20032;-64
2022/12/14 01:46:26;;;;;;;56.67;21.45;;;-5.70;99.90;;;;;;5061397;28;20105;-64
2022/12/14 01:49:00;;;;;;;49.75;21.70;;;-5.70;99.90;;;;;;5075225;28;20368;-64
2022/12/14 01:51:27;;;;;;;57.45;24.02;;;-5.80;99.90;;;;;;5107006;28;20151;-65
2022/12/14 01:53:54;;;;;;;57.95;22.45;;;-5.70;99.90;;;;;;5082284;28;20119;-64
2022/12/14 01:56:20;;;;;;;49.45;22.20;;;-5.70;99.90;;;;;;5104872;28;20039;-63
2022/12/14 01:58:45;;;;;;;51.63;22.70;;;-5.70;99.90;;;;;;5103356;28;20080;-63
2022/12/14 02:01:11;;;;;;;54.67;22.35;;;-5.70;99.90;;;;;;5105042;28;20055;-65
2022/12/14 02:03:42;;;;;;;50.45;21.95;;;-5.70;99.90;;;;;;5067381;28;20051;-63
2022/12/14 02:06:13;;;;;;;52.90;22.65;;;-5.70;99.90;;;;;;5101213;28;20043;-64
2022/12/14 02:08:42;;;;;;;53.88;22.38;;;-5.80;99.90;;;;;;5081327;28;20032;-63
2022/12/14 02:11:08;;;;;;;47.03;21.70;;;-5.90;99.90;;;;;;5072684;28;20047;-64
2022/12/14 02:13:38;;;;;;;50.20;19.85;;;-6.00;99.90;;;;;;5109199;28;20055;-63
2022/12/14 02:16:05;;;;;;;58.47;22.65;;;-6.10;99.90;;;;;;5106733;28;20386;-64
2022/12/14 02:18:32;;;;;;;44.63;20.60;;;-6.20;99.90;;;;;;5072465;28;20043;-64
2022/12/14 02:21:38;;;;;;;54.97;21.58;;;-6.30;99.90;;;;;;5106136;28;20092;-63
2022/12/14 02:24:12;;;;;;;51.55;21.10;;;-6.30;99.90;;;;;;5103820;28;20051;-63
2022/12/14 02:27:16;;;;;;;54.42;22.20;;;-6.40;99.90;;;;;;5089527;28;20534;-63
2022/12/14 02:30:06;;;;;;;48.45;21.10;;;-6.40;99.90;;;;;;5089277;28;20409;-64
2022/12/14 02:32:48;;;;;;;52.75;21.55;;;-6.40;99.90;;;;;;5101026;28;20113;-63
2022/12/14 02:35:31;;;;;;;51.17;20.58;;;-6.40;99.90;;;;;;5105707;28;20111;-64
2022/12/14 02:38:05;;;;;;;56.80;23.20;;;-6.40;99.90;;;;;;5104131;28;20156;-63
2022/12/14 02:40:52;;;;;;;52.70;22.60;;;-6.30;99.90;;;;;;5102569;28;20043;-63
2022/12/14 02:43:25;;;;;;;51.65;21.70;;;-6.30;99.90;;;;;;5076268;28;20044;-63
2022/12/14 02:46:21;;;;;;;46.72;21.95;;;-6.30;99.90;;;;;;5087896;28;21736;-62
2022/12/14 02:49:03;;;;;;;51.95;22.42;;;-6.30;99.90;;;;;;5103086;28;20031;-64
2022/12/14 02:51:32;;;;;;;51.78;21.30;;;-6.40;99.90;;;;;;5104621;28;20474;-63
2022/12/14 02:54:06;;;;;;;52.13;21.77;;;-6.40;99.90;;;;;;5107666;28;20035;-62
2022/12/14 02:56:45;;;;;;;51.75;21.23;;;-6.50;99.90;;;;;;5103581;28;20051;-63
2022/12/14 02:59:12;;;;;;;48.00;20.55;;;-6.50;99.90;;;;;;5106248;28;20521;-63
2022/12/14 03:01:40;;;;;;;55.75;21.95;;;-6.50;99.90;;;;;;5105814;28;20656;-63
2022/12/14 03:04:06;;;;;;;55.60;21.67;;;-6.50;99.90;;;;;;5093885;28;20392;-64
2022/12/14 03:06:31;;;;;;;57.78;20.75;;;-6.50;99.90;;;;;;5104253;28;20040;-65
2022/12/14 03:09:02;;;;;;;54.97;21.80;;;-6.50;99.90;;;;;;5110641;28;20111;-64
2022/12/14 03:11:47;;;;;;;48.90;21.65;;;-6.50;99.90;;;;;;5079778;28;20147;-65
2022/12/14 03:14:21;;;;;;;46.47;20.80;;;-6.50;99.90;;;;;;5092729;28;20048;-64
2022/12/14 03:16:49;;;;;;;53.47;20.63;;;-6.60;99.90;;;;;;5106499;28;20038;-64
2022/12/14 03:19:29;;;;;;;52.17;20.40;;;-6.60;99.90;;;;;;5086225;28;20044;-64
2022/12/14 03:21:58;;;;;;;45.13;20.75;;;-6.70;99.90;;;;;;5087063;28;20074;-65
2022/12/14 03:24:35;;;;;;;54.85;20.75;;;-6.70;99.90;;;;;;5087111;28;20039;-63
2022/12/14 03:27:11;;;;;;;51.50;21.05;;;-6.80;99.90;;;;;;5108348;28;20039;-65
2022/12/14 03:29:44;;;;;;;52.13;20.83;;;-6.80;99.90;;;;;;5088510;28;20059;-63
2022/12/14 03:32:17;;;;;;;51.03;22.65;;;-6.90;99.90;;;;;;5099297;28;20042;-65
2022/12/14 03:35:03;;;;;;;51.10;19.40;;;-6.90;99.90;;;;;;5102581;28;20075;-63
2022/12/14 03:37:41;;;;;;;50.55;20.42;;;-6.90;99.90;;;;;;5086373;28;20138;-64
2022/12/14 03:40:09;;;;;;;54.65;22.05;;;-7.00;99.90;;;;;;5083352;28;20360;-63
2022/12/14 03:42:44;;;;;;;58.10;21.90;;;-7.00;99.90;;;;;;5085046;28;20076;-65
2022/12/14 03:45:45;;;;;;;51.22;20.13;;;-7.00;99.90;;;;;;5106792;28;20044;-65
2022/12/14 03:48:45;;;;;;;51.33;21.30;;;-7.00;99.90;;;;;;5072066;28;20111;-64
2022/12/14 03:51:32;;;;;;;59.83;22.08;;;-7.00;99.90;;;;;;5080286;28;20100;-63
2022/12/14 03:54:19;;;;;;;50.72;20.40;;;-7.00;99.90;;;;;;5084268;28;20063;-64
2022/12/14 03:56:54;;;;;;;46.08;19.98;;;-7.00;99.90;;;;;;5077915;28;20047;-63
2022/12/14 03:59:20;;;;;;;56.05;21.65;;;-7.00;99.90;;;;;;5104148;28;20035;-63
2022/12/14 04:02:02;;;;;;;51.00;19.90;;;-7.10;99.90;;;;;;5086360;28;20144;-63
2022/12/14 04:04:45;;;;;;;53.10;20.77;;;-7.10;99.90;;;;;;5099485;28;20083;-64
2022/12/14 04:07:40;;;;;;;53.03;20.50;;;-7.10;99.90;;;;;;5098640;28;20039;-64
2022/12/14 04:19:00;;;;;;;61.92;22.75;;;-7.30;99.90;;;;;;5082706;28;20071;-65
2022/12/14 04:21:43;;;;;;;49.45;19.85;;;-7.30;99.90;;;;;;5098641;28;20044;-65
2022/12/14 04:27:32;;;;;;;49.20;20.40;;;-7.40;99.90;;;;;;5078323;28;20044;-64
2022/12/14 04:30:00;;;;;;;57.55;21.55;;;-7.40;99.90;;;;;;5106067;28;20126;-64
2022/12/14 04:32:37;;;;;;;52.88;20.77;;;-7.50;99.90;;;;;;5087183;28;20043;-64
2022/12/14 04:35:09;;;;;;;55.85;20.52;;;-7.50;99.90;;;;;;5104290;28;20039;-63
2022/12/14 04:37:37;;;;;;;50.42;21.05;;;-7.50;99.90;;;;;;5102289;28;20036;-63
2022/12/14 04:40:24;;;;;;;48.20;20.63;;;-7.50;99.90;;;;;;5104929;28;20494;-64
2022/12/14 04:42:55;;;;;;;47.80;21.40;;;-7.50;99.90;;;;;;5093799;28;20124;-63
2022/12/14 04:45:42;;;;;;;54.03;20.60;;;-7.50;99.90;;;;;;5108710;28;20078;-65
2022/12/14 04:48:14;;;;;;;51.17;19.58;;;-7.60;99.90;;;;;;5076267;28;20130;-62
2022/12/14 04:51:02;;;;;;;55.83;21.95;;;-7.60;99.90;;;;;;5090959;28;20040;-63
2022/12/14 04:53:29;;;;;;;52.20;20.23;;;-7.50;99.90;;;;;;5076284;28;20130;-62
2022/12/14 04:56:09;;;;;;;48.80;19.58;;;-7.60;99.90;;;;;;5114272;27;20044;-63
2022/12/14 04:58:36;;;;;;;50.25;19.90;;;-7.60;99.90;;;;;;5078809;28;20039;-63
2022/12/14 05:01:29;;;;;;;58.00;20.60;;;-7.60;99.90;;;;;;5068757;28;20088;-65
2022/12/14 05:04:26;;;;;;;48.53;20.63;;;-7.60;99.90;;;;;;5108699;28;20101;-63
2022/12/14 05:07:09;;;;;;;50.60;19.30;;;-7.60;99.90;;;;;;5099421;28;20040;-64
2022/12/14 05:09:45;;;;;;;53.20;20.00;;;-7.50;99.90;;;;;;5074177;28;20480;-66
2022/12/14 05:12:23;;;;;;;53.72;19.85;;;-7.50;99.90;;;;;;5096769;28;20031;-64
2022/12/14 05:14:55;;;;;;;43.80;20.00;;;-7.60;99.90;;;;;;5102663;28;20115;-63
2022/12/14 05:17:21;;;;;;;51.17;19.83;;;-7.60;99.90;;;;;;5088309;28;20047;-63
2022/12/14 05:19:49;;;;;;;54.10;19.27;;;-7.70;99.90;;;;;;5091400;28;20215;-63
2022/12/14 05:22:16;;;;;;;50.83;19.27;;;-7.70;99.90;;;;;;5102469;28;20039;-63
2022/12/14 05:24:41;;;;;;;51.30;20.25;;;-7.80;99.90;;;;;;5084021;28;20050;-63
2022/12/14 05:27:07;;;;;;;54.50;21.15;;;-7.80;99.90;;;;;;5071568;28;20489;-63
2022/12/14 05:29:32;;;;;;;56.15;20.85;;;-7.80;99.90;;;;;;5102776;28;20032;-63
2022/12/14 05:31:59;;;;;;;49.38;19.52;;;-7.80;99.90;;;;;;5084635;28;20028;-63
2022/12/14 05:34:24;;;;;;;48.30;19.88;;;-7.90;99.90;;;;;;5099313;28;20101;-63
2022/12/14 05:36:50;;;;;;;50.65;19.75;;;-7.80;99.90;;;;;;5082768;28;20074;-64
2022/12/14 05:39:16;;;;;;;51.00;20.17;;;-7.80;99.90;;;;;;5081388;28;20039;-63
2022/12/14 05:41:43;;;;;;;46.17;19.92;;;-7.90;99.90;;;;;;5086496;28;20122;-63
2022/12/14 05:44:08;;;;;;;48.20;20.02;;;-7.80;99.90;;;;;;5066080;28;20105;-64
2022/12/14 05:46:34;;;;;;;43.60;18.55;;;-7.70;99.90;;;;;;5100344;28;20047;-62
2022/12/14 05:49:01;;;;;;;51.45;20.98;;;-7.80;99.90;;;;;;5082276;28;20063;-65
2022/12/14 05:51:26;;;;;;;50.42;20.08;;;-7.80;99.90;;;;;;5080368;28;20051;-66
2022/12/14 05:53:52;;;;;;;53.13;19.98;;;-7.80;99.90;;;;;;5082305;28;20036;-65
2022/12/14 05:56:18;;;;;;;51.60;19.25;;;-7.80;99.90;;;;;;5099865;28;20047;-64
2022/12/14 05:58:43;;;;;;;51.13;19.23;;;-7.80;99.90;;;;;;5082112;28;20040;-63
2022/12/14 06:01:10;;;;;;;48.67;19.90;;;-7.80;99.90;;;;;;5103218;28;20039;-64
2022/12/14 06:03:37;;;;;;;48.63;19.95;;;-7.90;99.90;;;;;;5081307;28;20517;-65
2022/12/14 06:06:05;;;;;;;57.25;20.42;;;-7.90;99.90;;;;;;5082213;28;20498;-64
2022/12/14 06:08:35;;;;;;;53.05;20.08;;;-7.90;99.90;;;;;;5111896;28;20036;-63
2022/12/14 06:11:07;;;;;;;46.05;18.95;;;-7.90;99.90;;;;;;5106064;28;20349;-65
2022/12/14 06:13:37;;;;;;;42.38;18.23;;;-7.90;99.90;;;;;;5088485;28;20048;-65
2022/12/14 06:16:08;;;;;;;49.58;19.05;;;-7.90;99.90;;;;;;5108542;28;20052;-64
2022/12/14 06:18:34;;;;;;;46.47;18.90;;;-7.90;99.90;;;;;;5085183;28;20074;-63
2022/12/14 06:20:59;;;;;;;49.97;20.08;;;-7.90;99.90;;;;;;5086984;28;20399;-63
2022/12/14 06:23:25;;;;;;;49.28;19.23;;;-8.00;99.90;;;;;;5104596;28;20053;-63
2022/12/14 06:25:55;;;;;;;52.88;19.25;;;-8.00;99.90;;;;;;5103429;28;20042;-64
2022/12/14 06:28:21;;;;;;;;;;;-8.00;99.90;;;;;;5098481;28;20028;-63
2022/12/14 06:30:47;;;;;;;50.85;18.95;;;-8.00;99.90;;;;;;5085087;28;19915;-64
2022/12/14 06:33:12;;;;;;;47.50;18.40;;;-8.00;99.90;;;;;;5091228;28;20065;-63
2022/12/14 06:35:43;;;;;;;47.95;19.13;;;-8.00;99.90;;;;;;5082971;28;20046;-64
2022/12/14 06:38:10;;;;;;;51.03;20.17;;;-8.00;99.90;;;;;;5064867;28;20056;-64
2022/12/14 06:40:39;;;;;;;48.58;18.85;;;-8.00;99.90;;;;;;5107874;28;20042;-64
2022/12/14 06:43:04;;;;;;;42.15;18.52;;;-8.00;99.90;;;;;;5089510;28;20047;-65
2022/12/14 06:45:30;;;;;;;50.45;20.83;;;-8.10;99.90;;;;;;5083538;28;20040;-65
2022/12/14 06:47:57;;;;;;;55.30;19.52;;;-8.10;99.90;;;;;;5103449;28;20529;-65
2022/12/14 06:50:23;;;;;;;47.30;19.08;;;-8.00;99.90;;;;;;5104572;28;20046;-63
2022/12/14 06:52:50;;;;;;;44.17;18.00;;;-8.00;99.90;;;;;;5087244;28;20088;-62
2022/12/14 06:55:16;;;;;;;53.47;18.35;;;-8.10;99.90;;;;;;5104250;28;20043;-63
2022/12/14 06:57:41;;;;;;;47.15;19.30;;;-7.90;99.90;;;;;;5062102;28;20052;-64
2022/12/14 07:00:11;;;;;;;43.92;19.58;;;-7.90;99.90;;;;;;5109201;28;20039;-63
2022/12/14 07:02:39;;;;;;;52.38;20.00;;;-7.90;99.90;;;;;;5104496;28;20040;-62
2022/12/14 07:05:05;;;;;;;53.50;20.42;;;-7.80;99.90;;;;;;5102500;28;20050;-65
2022/12/14 07:07:32;;;;;;;46.22;19.85;;;-7.80;99.90;;;;;;5104237;28;20051;-63
2022/12/14 07:09:58;;;;;;;47.42;17.25;;;-7.80;99.90;;;;;;5089410;28;20042;-64
2022/12/14 07:12:26;;;;;;;53.65;18.27;;;-7.90;99.90;;;;;;5088352;28;20032;-64
2022/12/14 07:14:55;;;;;;;53.53;19.45;;;-7.90;99.90;;;;;;5089748;28;20048;-64
2022/12/14 07:17:21;;;;;;;42.50;17.40;;;-7.90;99.90;;;;;;5094880;28;20039;-62
2022/12/14 07:19:47;;;;;;;46.13;17.60;;;-8.00;99.90;;;;;;5087094;28;20441;-63
2022/12/14 07:22:13;;;;;;;44.97;17.58;;;-8.00;99.90;;;;;;5104146;28;20123;-64
2022/12/14 07:24:39;;;;;;;44.90;17.88;;;-8.00;99.90;;;;;;5083359;28;20036;-64
2022/12/14 07:27:05;;;;;;;42.38;17.42;;;-8.10;99.90;;;;;;5089222;28;20046;-64
2022/12/14 07:29:31;;;;;;;45.10;17.15;;;-8.10;99.90;;;;;;5083352;28;20516;-62
2022/12/14 07:31:57;;;;;;;53.80;18.75;;;-8.10;99.90;;;;;;5083082;28;20060;-63
2022/12/14 07:34:23;;;;;;;46.67;17.85;;;-8.10;99.90;;;;;;5070842;28;20375;-64
2022/12/14 07:36:50;;;;;;;47.28;18.52;;;-8.10;99.90;;;;;;5104964;28;20061;-63
2022/12/14 07:39:16;;;;;;;48.83;18.45;;;-8.10;99.90;;;;;;5083424;28;20035;-65
2022/12/14 07:41:42;;;;;;;49.10;18.77;;;-8.10;99.90;;;;;;5085932;28;20121;-63
2022/12/14 07:44:08;;;;;;;55.38;18.77;;;-8.10;99.90;;;;;;5104319;28;20065;-63
2022/12/14 07:46:34;;;;;;;51.00;17.98;;;-8.10;99.90;;;;;;5086430;28;20040;-64
2022/12/14 07:49:00;;;;;;;46.92;18.77;;;-8.20;99.90;;;;;;5100559;28;20114;-62
2022/12/14 07:51:30;;;;;;;50.35;18.30;;;-8.20;99.90;;;;;;5107334;28;20032;-64
2022/12/14 07:53:56;;;;;;;54.75;17.60;;;-8.20;99.90;;;;;;5079608;28;20036;-62
2022/12/14 07:56:28;;;;;;;50.92;19.25;;;-8.30;99.90;;;;;;5105357;28;20050;-62
2022/12/14 07:58:55;;;;;;;43.35;18.23;;;-8.30;99.90;;;;;;5097482;28;20035;-63
2022/12/14 08:01:23;;;;;;;48.97;19.15;;;-8.30;99.90;;;;;;5099681;28;20044;-64
2022/12/14 08:03:51;;;;;;;57.67;19.88;;;-8.30;99.90;;;;;;5091387;28;20070;-64
2022/12/14 08:06:18;;;;;;;43.75;19.17;;;-8.30;99.90;;;;;;5088724;28;20462;-62
2022/12/14 08:08:45;;;;;;;51.40;18.63;;;-8.30;99.90;;;;;;5089842;28;20650;-62
2022/12/14 08:11:11;;;;;;;56.45;19.40;;;-8.30;99.90;;;;;;5090257;28;20460;-62
2022/12/14 08:13:37;;;;;;;51.03;19.80;;;-8.30;99.90;;;;;;5106318;28;20383;-63
2022/12/14 08:16:09;;;;;;;50.38;19.35;;;-8.30;99.90;;;;;;5104883;28;20085;-64
2022/12/14 08:18:35;;;;;;;45.65;19.38;;;-8.20;99.90;;;;;;5106047;28;20027;-62
2022/12/14 08:21:01;;;;;;;46.75;18.30;;;-8.20;99.90;;;;;;5099107;28;20525;-63
2022/12/14 08:23:28;;;;;;;46.17;18.75;;;-8.20;99.90;;;;;;5085894;28;20039;-64
2022/12/14 08:25:55;;;;;;;47.70;18.88;;;-8.10;99.90;;;;;;5107422;28;20084;-62
2022/12/14 08:28:21;;;;;;;43.38;19.73;;;-8.10;99.90;;;;;;5107545;28;20046;-63
2022/12/14 08:30:47;;;;;;;50.80;19.90;;;-8.10;99.90;;;;;;5102141;28;20031;-63
2022/12/14 08:33:13;;;;;;;54.42;19.58;;;-8.00;99.90;;;;;;5103960;28;20394;-62
2022/12/14 08:35:38;;;;;;;51.38;18.63;;;-7.90;99.90;;;;;;5082044;28;20074;-63
2022/12/14 08:38:04;;;;;;;41.67;17.42;;;-7.90;99.90;;;;;;5083579;28;20039;-63
2022/12/14 08:40:29;;;;;;;51.03;18.17;;;-7.80;99.90;;;;;;5105811;28;20058;-63
2022/12/14 08:42:55;;;;;;;50.10;19.60;;;-7.70;99.90;;;;;;5107989;28;20089;-63
2022/12/14 08:45:20;;;;;;;50.22;19.35;;;-7.70;99.90;;;;;;5100250;28;20035;-63
2022/12/14 08:47:46;;;;;;;47.33;19.08;;;-7.70;99.90;;;;;;5093206;28;20039;-66
2022/12/14 08:50:12;;;;;;;51.00;19.35;;;-7.60;99.90;;;;;;5096741;28;20042;-64
2022/12/14 08:52:38;;;;;;;44.30;18.30;;;-7.60;99.90;;;;;;5088248;28;20043;-64
2022/12/14 08:55:05;;;;;;;47.05;17.50;;;-7.60;99.90;;;;;;5088918;28;20491;-65
2022/12/14 08:57:31;;;;;;;41.75;17.60;;;-7.50;99.90;;;;;;5086208;28;20100;-65
2022/12/14 08:59:57;;;;;;;45.75;18.73;;;-7.50;99.90;;;;;;5084275;28;20043;-64
2022/12/14 09:02:22;;;;;;;48.95;20.25;;;-7.50;99.90;;;;;;5107433;28;20668;-64
2022/12/14 09:04:48;;;;;;;46.90;20.13;;;-7.40;99.90;;;;;;5089727;28;20486;-66
2022/12/14 09:07:14;;;;;;;50.75;18.77;;;-7.40;99.90;;;;;;5103163;28;20632;-64
2022/12/14 09:09:39;;;;;;;55.30;19.95;;;-7.30;99.90;;;;;;5081361;28;20031;-63
2022/12/14 09:12:06;;;;;;;52.03;19.55;;;-7.20;99.90;;;;;;5085626;28;20483;-63
2022/12/14 09:14:35;;;;;;;52.03;19.38;;;-7.20;99.90;;;;;;5107675;28;20471;-64
2022/12/14 09:17:02;;;;;;;48.00;18.05;;;-7.00;99.90;;;;;;5089640;28;20083;-64
2022/12/14 09:19:28;;;;;;;52.58;18.60;;;-6.90;99.90;;;;;;5093925;28;20463;-63
2022/12/14 09:21:54;;;;;;;54.08;20.10;;;-6.90;99.90;;;;;;5088479;28;20042;-65
2022/12/14 09:24:21;;;;;;;56.78;20.08;;;-6.70;99.90;;;;;;5112547;28;20478;-65
2022/12/14 09:26:46;;;;;;;50.28;19.38;;;-6.70;99.90;;;;;;5111159;28;20067;-63
2022/12/14 09:29:17;;;;;;;60.17;18.85;;;-6.60;99.90;;;;;;5092869;28;20078;-65
2022/12/14 09:31:43;;;;;;;54.40;20.35;;;-6.50;99.90;;;;;;5093139;28;20035;-63
2022/12/14 09:34:09;;;;;;;49.63;19.42;;;-6.40;99.90;;;;;;5082586;28;20036;-63
2022/12/14 09:36:35;;;;;;;53.13;20.52;;;-6.30;99.90;;;;;;5090367;28;20459;-65
2022/12/14 09:39:01;;;;;;;51.50;19.65;;;-6.20;99.90;;;;;;5109993;28;20054;-64
2022/12/14 09:41:33;;;;;;;48.97;21.00;;;-6.00;99.90;;;;;;5073474;28;20104;-66
2022/12/14 09:44:09;;;;;;;56.58;21.30;;;-6.00;99.90;;;;;;5090018;28;20483;-64
2022/12/14 09:46:53;;;;;;;54.00;18.58;;;-5.90;99.90;;;;;;5088761;28;20047;-66
2022/12/14 09:49:29;;;;;;;47.55;18.60;;;-5.70;99.90;;;;;;5115019;28;20039;-63
2022/12/14 09:51:59;;;;;;;49.35;19.55;;;-5.40;99.90;;;;;;5092459;28;20554;-64
2022/12/14 09:54:26;;;;;;;;;;;-5.40;99.90;;;;;;5113955;28;20023;-66
2022/12/14 09:56:56;;;;;;;46.72;18.35;;;-5.30;99.90;;;;;;5095990;28;19916;-64
2022/12/14 09:59:25;;;;;;;46.75;18.88;;;-5.20;99.90;;;;;;5092178;28;20043;-65
2022/12/14 10:02:23;;;;;;;44.78;17.02;;;-5.10;99.90;;;;;;5094731;28;20494;-64
2022/12/14 10:05:17;;;;;;;53.00;18.38;;;-5.00;99.90;;;;;;5087918;28;20122;-65
2022/12/14 10:08:06;;;;;;;42.78;17.00;;;-4.90;99.90;;;;;;5085635;28;20040;-65
2022/12/14 10:10:56;;;;;;;48.45;17.02;;;-4.80;99.90;;;;;;5087195;28;20093;-63
2022/12/14 10:13:57;;;;;;;39.95;16.23;;;-4.80;99.90;;;;;;5087504;28;20059;-65
2022/12/14 10:16:42;;;;;;;45.53;17.02;;;-4.70;99.90;;;;;;5091835;28;20163;-65
2022/12/14 10:19:33;;;;;;;40.30;17.23;;;-4.60;99.90;;;;;;5079607;28;20447;-65
2022/12/14 10:22:01;;;;;;;43.22;17.35;;;-4.40;99.90;;;;;;5092391;28;20387;-65
2022/12/14 10:24:35;;;;;;;48.35;18.05;;;-4.10;99.90;;;;;;5087394;28;20103;-65
2022/12/14 10:27:04;;;;;;;43.38;17.65;;;-3.90;99.90;;;;;;5105419;28;20093;-64
2022/12/14 10:29:50;;;;;;;40.27;14.87;;;-3.90;99.90;;;;;;5092997;28;20341;-65
2022/12/14 10:32:29;;;;;;;41.38;15.32;;;-3.90;99.90;;;;;;5086974;28;20071;-66
2022/12/14 10:34:54;;;;;;;39.58;15.30;;;-3.90;99.90;;;;;;5085632;28;20051;-66
2022/12/14 10:37:33;;;;;;;39.70;16.35;;;-3.90;99.90;;;;;;5088680;28;20392;-65
2022/12/14 10:40:08;;;;;;;40.65;16.48;;;-3.80;99.90;;;;;;5086258;28;20040;-65
2022/12/14 10:42:49;;;;;;;34.22;15.35;;;-3.80;99.90;;;;;;5101341;28;20632;-65
2022/12/14 10:45:26;;;;;;;38.53;15.73;;;-3.80;99.90;;;;;;5089688;28;20079;-67
2022/12/14 10:48:06;;;;;;;41.17;15.82;;;-3.80;99.90;;;;;;5090154;28;20071;-67
2022/12/14 10:51:01;;;;;;;38.90;17.40;;;-3.80;99.90;;;;;;5082885;28;20043;-67
2022/12/14 10:53:36;;;;;;;45.20;16.35;;;-3.70;99.90;;;;;;5082883;28;20040;-65
2022/12/14 10:56:07;;;;;;;36.25;16.42;;;-3.70;99.90;;;;;;5101882;28;20062;-66
2022/12/14 10:58:33;;;;;;;36.90;15.25;;;-3.50;99.90;;;;;;5104711;28;20035;-66
2022/12/14 11:00:59;;;;;;;35.80;15.38;;;-3.50;99.90;;;;;;5091797;28;20046;-66
2022/12/14 11:03:24;;;;;;;33.63;14.93;;;-3.40;99.90;;;;;;5083475;28;20035;-64
2022/12/14 11:06:03;;;;;;;38.15;15.13;;;-3.40;99.90;;;;;;5089569;28;20071;-65
2022/12/14 11:08:49;;;;;;;39.97;15.23;;;-3.40;99.90;;;;;;5107152;28;20032;-65
2022/12/14 11:11:20;;;;;;;32.72;14.63;;;-3.30;99.90;;;;;;5084014;28;20094;-65
2022/12/14 11:13:52;;;;;;;35.65;15.00;;;-3.30;99.90;;;;;;5088786;28;20056;-65
2022/12/14 11:16:25;;;;;;;34.65;14.23;;;-3.30;99.90;;;;;;5088318;28;20035;-64
2022/12/14 11:18:59;;;;;;;35.25;14.75;;;-3.20;99.90;;;;;;5106513;28;20390;-65
2022/12/14 11:21:31;;;;;;;36.00;14.63;;;-3.10;99.90;;;;;;5108977;28;20043;-65
2022/12/14 11:23:56;;;;;;;35.78;15.18;;;-3.10;99.90;;;;;;5109265;28;20850;-63
2022/12/14 11:26:42;;;;;;;35.03;14.60;;;-3.00;99.90;;;;;;5108472;28;20134;-65
2022/12/14 11:29:32;;;;;;;29.80;14.02;;;-3.00;99.90;;;;;;5087185;28;20047;-64
2022/12/14 11:31:59;;;;;;;;;;;-3.00;99.90;;;;;;5100148;28;20439;-63
2022/12/14 11:34:39;;;;;;;38.20;14.73;;;-2.90;99.90;;;;;;5103414;28;19923;-63
2022/12/14 11:37:21;;;;;;;40.15;15.05;;;-2.80;99.90;;;;;;5106660;28;20058;-63
2022/12/14 11:39:52;;;;;;;32.30;14.10;;;-2.80;99.90;;;;;;5099850;28;20028;-63
2022/12/14 11:42:19;;;;;;;34.70;15.65;;;-2.70;99.90;;;;;;5086515;28;20075;-65
2022/12/14 11:44:47;;;;;;;36.30;16.27;;;-2.60;99.90;;;;;;5103691;28;20438;-64
2022/12/14 11:47:24;;;;;;;38.42;15.60;;;-2.60;99.90;;;;;;5105006;28;20773;-65
2022/12/14 11:49:54;;;;;;;38.15;15.85;;;-2.60;99.90;;;;;;5108606;28;20095;-63
2022/12/14 11:52:40;;;;;;;40.97;16.40;;;-2.60;99.90;;;;;;5102023;28;20035;-63
2022/12/14 11:55:13;;;;;;;38.90;15.23;;;-2.60;99.90;;;;;;5101235;28;20043;-63
2022/12/14 11:57:46;;;;;;;36.03;16.17;;;-2.50;99.90;;;;;;5089016;28;20483;-63
2022/12/14 12:00:24;;;;;;;43.47;17.23;;;-2.40;99.90;;;;;;5085542;28;20066;-63
2022/12/14 12:03:01;;;;;;;43.53;16.67;;;-2.40;99.90;;;;;;5090123;28;20070;-64
2022/12/14 12:05:31;;;;;;;40.85;17.55;;;-2.40;99.90;;;;;;5099741;28;20528;-62
2022/12/14 12:07:58;;;;;;;38.80;17.23;;;-2.40;99.90;;;;;;5102083;28;20043;-64
2022/12/14 12:10:33;;;;;;;33.22;14.32;;;-2.30;99.90;;;;;;5101710;28;20039;-63
2022/12/14 12:13:04;;;;;;;41.05;17.15;;;-2.30;99.90;;;;;;5101066;28;20035;-62
2022/12/14 12:15:38;;;;;;;39.78;17.33;;;-2.20;99.90;;;;;;5085035;28;20062;-65
2022/12/14 12:18:25;;;;;;;35.00;15.93;;;-2.20;99.90;;;;;;5103113;28;20039;-64
2022/12/14 12:21:17;;;;;;;39.25;15.23;;;-2.20;99.90;;;;;;5099809;28;20495;-62
2022/12/14 12:23:50;;;;;;;39.70;16.85;;;-2.20;99.90;;;;;;5102420;28;20104;-64
2022/12/14 12:26:24;;;;;;;35.42;16.17;;;-2.20;99.90;;;;;;5083624;28;20411;-64
2022/12/14 12:28:55;;;;;;;36.42;16.52;;;-2.20;99.90;;;;;;5098167;28;20127;-63
2022/12/14 12:31:30;;;;;;;42.60;16.95;;;-2.20;99.90;;;;;;5101008;28;20035;-64
2022/12/14 12:34:02;;;;;;;37.08;15.32;;;-2.20;99.90;;;;;;5098973;28;20046;-63
2022/12/14 12:36:31;;;;;;;45.67;16.85;;;-2.20;99.90;;;;;;5101221;28;20570;-63
2022/12/14 12:39:01;;;;;;;34.78;15.40;;;-2.20;99.90;;;;;;5102018;28;20158;-64
2022/12/14 12:41:30;;;;;;;37.28;16.23;;;-2.20;99.90;;;;;;5084773;28;20058;-63
2022/12/14 12:44:21;;;;;;;35.03;15.27;;;-2.10;99.90;;;;;;5103600;28;20050;-65
2022/12/14 12:47:03;;;;;;;37.45;15.95;;;-2.10;99.90;;;;;;5097433;28;20035;-64
2022/12/14 12:49:28;;;;;;;41.55;15.88;;;-2.00;99.90;;;;;;5106902;28;20035;-64
2022/12/14 12:52:01;;;;;;;38.85;16.02;;;-2.00;99.90;;;;;;5081646;28;20043;-64
2022/12/14 12:54:35;;;;;;;31.55;15.15;;;-2.00;99.90;;;;;;5106807;28;20067;-63
2022/12/14 12:57:02;;;;;;;36.05;15.13;;;-2.00;99.90;;;;;;5103962;28;20052;-63
2022/12/14 12:59:39;;;;;;;28.33;14.93;;;-2.00;99.90;;;;;;5086771;28;20047;-64
2022/12/14 13:02:34;;;;;;;43.47;17.00;;;-2.00;99.90;;;;;;5099804;28;20150;-63